sensor_id;sensor_type;location;lat;lon;timestamp;P1;durP1;ratioP1;P2;durP2;ratioP2
72920;SDS011;61064;51.654;5.476;2023-08-31T00:01:45;8.17;;;3.70;;
72920;SDS011;61064;51.654;5.476;2023-08-31T00:04:11;8.88;;;3.58;;
72920;SDS011;61064;51.654;5.476;2023-08-31T00:06:39;9.80;;;3.70;;
72920;SDS011;61064;51.654;5.476;2023-08-31T00:09:10;11.07;;;4.15;;
72920;SDS011;61064;51.654;5.476;2023-08-31T00:11:35;9.38;;;3.90;;
72920;SDS011;61064;51.654;5.476;2023-08-31T00:14:01;10.43;;;4.23;;
72920;SDS011;61064;51.654;5.476;2023-08-31T00:16:27;10.38;;;4.70;;
72920;SDS011;61064;51.654;5.476;2023-08-31T00:18:52;9.87;;;4.50;;
72920;SDS011;61064;51.654;5.476;2023-08-31T00:21:19;9.65;;;4.53;;
72920;SDS011;61064;51.654;5.476;2023-08-31T00:23:45;8.10;;;4.25;;
72920;SDS011;61064;51.654;5.476;2023-08-31T00:26:11;10.33;;;5.00;;
72920;SDS011;61064;51.654;5.476;2023-08-31T00:28:36;11.97;;;5.17;;
72920;SDS011;61064;51.654;5.476;2023-08-31T00:31:02;9.65;;;5.07;;
72920;SDS011;61064;51.654;5.476;2023-08-31T00:33:30;11.40;;;5.17;;
72920;SDS011;61064;51.654;5.476;2023-08-31T00:35:58;11.40;;;5.63;;
72920;SDS011;61064;51.654;5.476;2023-08-31T00:38:26;11.97;;;6.10;;
72920;SDS011;61064;51.654;5.476;2023-08-31T00:40:52;10.52;;;5.32;;
72920;SDS011;61064;51.654;5.476;2023-08-31T00:43:19;10.20;;;5.45;;
72920;SDS011;61064;51.654;5.476;2023-08-31T00:45:44;12.93;;;5.83;;
72920;SDS011;61064;51.654;5.476;2023-08-31T00:48:11;11.20;;;5.63;;
72920;SDS011;61064;51.654;5.476;2023-08-31T00:50:39;14.27;;;5.78;;
72920;SDS011;61064;51.654;5.476;2023-08-31T00:53:05;14.13;;;6.30;;
72920;SDS011;61064;51.654;5.476;2023-08-31T00:55:30;13.20;;;6.20;;
72920;SDS011;61064;51.654;5.476;2023-08-31T00:57:57;12.47;;;6.67;;
72920;SDS011;61064;51.654;5.476;2023-08-31T01:00:24;13.82;;;6.15;;
72920;SDS011;61064;51.654;5.476;2023-08-31T01:03:05;13.95;;;6.75;;
72920;SDS011;61064;51.654;5.476;2023-08-31T01:05:50;11.57;;;6.43;;
72920;SDS011;61064;51.654;5.476;2023-08-31T01:10:58;14.83;;;7.17;;
72920;SDS011;61064;51.654;5.476;2023-08-31T01:13:25;12.88;;;7.28;;
72920;SDS011;61064;51.654;5.476;2023-08-31T01:15:56;12.50;;;6.80;;
72920;SDS011;61064;51.654;5.476;2023-08-31T01:18:26;14.52;;;7.57;;
72920;SDS011;61064;51.654;5.476;2023-08-31T01:21:05;14.15;;;7.75;;
72920;SDS011;61064;51.654;5.476;2023-08-31T01:23:44;17.20;;;7.73;;
72920;SDS011;61064;51.654;5.476;2023-08-31T01:26:15;12.88;;;7.13;;
72920;SDS011;61064;51.654;5.476;2023-08-31T01:28:40;15.60;;;7.93;;
72920;SDS011;61064;51.654;5.476;2023-08-31T01:31:05;15.63;;;8.00;;
72920;SDS011;61064;51.654;5.476;2023-08-31T01:33:31;13.48;;;7.93;;
72920;SDS011;61064;51.654;5.476;2023-08-31T01:35:56;13.83;;;7.90;;
72920;SDS011;61064;51.654;5.476;2023-08-31T01:38:27;16.73;;;8.25;;
72920;SDS011;61064;51.654;5.476;2023-08-31T01:43:29;14.23;;;8.30;;
72920;SDS011;61064;51.654;5.476;2023-08-31T01:45:57;15.15;;;7.85;;
72920;SDS011;61064;51.654;5.476;2023-08-31T01:48:23;14.73;;;8.20;;
72920;SDS011;61064;51.654;5.476;2023-08-31T01:50:48;15.20;;;8.30;;
72920;SDS011;61064;51.654;5.476;2023-08-31T01:53:14;13.70;;;7.93;;
72920;SDS011;61064;51.654;5.476;2023-08-31T01:55:39;14.77;;;7.87;;
72920;SDS011;61064;51.654;5.476;2023-08-31T01:58:04;15.07;;;8.23;;
72920;SDS011;61064;51.654;5.476;2023-08-31T02:00:29;16.43;;;7.47;;
72920;SDS011;61064;51.654;5.476;2023-08-31T02:03:02;13.73;;;7.78;;
72920;SDS011;61064;51.654;5.476;2023-08-31T02:05:27;14.00;;;8.05;;
72920;SDS011;61064;51.654;5.476;2023-08-31T02:07:53;13.90;;;8.03;;
72920;SDS011;61064;51.654;5.476;2023-08-31T02:10:18;14.57;;;7.43;;
72920;SDS011;61064;51.654;5.476;2023-08-31T02:12:44;14.83;;;8.13;;
72920;SDS011;61064;51.654;5.476;2023-08-31T02:15:09;15.43;;;7.73;;
72920;SDS011;61064;51.654;5.476;2023-08-31T02:17:35;13.53;;;7.40;;
72920;SDS011;61064;51.654;5.476;2023-08-31T02:20:00;13.82;;;7.80;;
72920;SDS011;61064;51.654;5.476;2023-08-31T02:22:27;15.60;;;7.73;;
72920;SDS011;61064;51.654;5.476;2023-08-31T02:24:54;14.68;;;7.47;;
72920;SDS011;61064;51.654;5.476;2023-08-31T02:27:20;14.07;;;7.80;;
72920;SDS011;61064;51.654;5.476;2023-08-31T02:29:45;15.43;;;8.03;;
72920;SDS011;61064;51.654;5.476;2023-08-31T02:32:10;15.40;;;7.22;;
72920;SDS011;61064;51.654;5.476;2023-08-31T02:34:36;12.80;;;6.50;;
72920;SDS011;61064;51.654;5.476;2023-08-31T02:37:01;12.63;;;6.60;;
72920;SDS011;61064;51.654;5.476;2023-08-31T02:39:26;11.80;;;6.60;;
72920;SDS011;61064;51.654;5.476;2023-08-31T02:41:52;14.70;;;6.90;;
72920;SDS011;61064;51.654;5.476;2023-08-31T02:44:17;14.03;;;7.13;;
72920;SDS011;61064;51.654;5.476;2023-08-31T02:46:42;14.20;;;6.97;;
72920;SDS011;61064;51.654;5.476;2023-08-31T02:49:08;11.67;;;6.80;;
72920;SDS011;61064;51.654;5.476;2023-08-31T02:51:33;13.40;;;7.03;;
72920;SDS011;61064;51.654;5.476;2023-08-31T02:53:58;16.33;;;7.03;;
72920;SDS011;61064;51.654;5.476;2023-08-31T02:56:24;13.60;;;7.13;;
72920;SDS011;61064;51.654;5.476;2023-08-31T02:58:49;13.67;;;7.03;;
72920;SDS011;61064;51.654;5.476;2023-08-31T03:01:14;13.90;;;6.73;;
72920;SDS011;61064;51.654;5.476;2023-08-31T03:03:40;14.50;;;7.30;;
72920;SDS011;61064;51.654;5.476;2023-08-31T03:06:07;13.48;;;7.28;;
72920;SDS011;61064;51.654;5.476;2023-08-31T03:08:34;13.85;;;7.40;;
72920;SDS011;61064;51.654;5.476;2023-08-31T03:11:03;14.13;;;7.30;;
72920;SDS011;61064;51.654;5.476;2023-08-31T03:13:30;12.50;;;7.40;;
72920;SDS011;61064;51.654;5.476;2023-08-31T03:15:56;13.80;;;7.70;;
72920;SDS011;61064;51.654;5.476;2023-08-31T03:18:22;14.40;;;7.30;;
72920;SDS011;61064;51.654;5.476;2023-08-31T03:20:48;15.00;;;8.33;;
72920;SDS011;61064;51.654;5.476;2023-08-31T03:23:13;15.10;;;7.95;;
72920;SDS011;61064;51.654;5.476;2023-08-31T03:25:39;18.87;;;9.03;;
72920;SDS011;61064;51.654;5.476;2023-08-31T03:28:04;17.50;;;8.90;;
72920;SDS011;61064;51.654;5.476;2023-08-31T03:30:29;14.13;;;9.37;;
72920;SDS011;61064;51.654;5.476;2023-08-31T03:32:55;14.85;;;8.80;;
72920;SDS011;61064;51.654;5.476;2023-08-31T03:35:20;15.20;;;9.23;;
72920;SDS011;61064;51.654;5.476;2023-08-31T03:37:51;17.23;;;9.93;;
72920;SDS011;61064;51.654;5.476;2023-08-31T03:40:16;17.10;;;9.60;;
72920;SDS011;61064;51.654;5.476;2023-08-31T03:42:42;16.40;;;9.47;;
72920;SDS011;61064;51.654;5.476;2023-08-31T03:45:07;17.90;;;10.47;;
72920;SDS011;61064;51.654;5.476;2023-08-31T03:47:33;18.47;;;9.87;;
72920;SDS011;61064;51.654;5.476;2023-08-31T03:49:58;17.10;;;10.10;;
72920;SDS011;61064;51.654;5.476;2023-08-31T03:52:23;17.90;;;11.02;;
72920;SDS011;61064;51.654;5.476;2023-08-31T03:54:49;21.60;;;11.60;;
72920;SDS011;61064;51.654;5.476;2023-08-31T03:57:16;19.45;;;11.05;;
72920;SDS011;61064;51.654;5.476;2023-08-31T03:59:41;19.50;;;10.73;;
72920;SDS011;61064;51.654;5.476;2023-08-31T04:02:06;19.17;;;10.57;;
72920;SDS011;61064;51.654;5.476;2023-08-31T04:04:32;19.27;;;10.93;;
72920;SDS011;61064;51.654;5.476;2023-08-31T04:06:58;19.70;;;10.93;;
72920;SDS011;61064;51.654;5.476;2023-08-31T04:09:24;22.97;;;11.43;;
72920;SDS011;61064;51.654;5.476;2023-08-31T04:11:49;19.07;;;10.80;;
72920;SDS011;61064;51.654;5.476;2023-08-31T04:14:15;19.03;;;10.73;;
72920;SDS011;61064;51.654;5.476;2023-08-31T04:16:40;22.80;;;10.80;;
72920;SDS011;61064;51.654;5.476;2023-08-31T04:19:05;22.52;;;11.35;;
72920;SDS011;61064;51.654;5.476;2023-08-31T04:21:30;21.87;;;11.60;;
72920;SDS011;61064;51.654;5.476;2023-08-31T04:23:56;19.50;;;11.23;;
72920;SDS011;61064;51.654;5.476;2023-08-31T04:26:21;22.60;;;11.53;;
72920;SDS011;61064;51.654;5.476;2023-08-31T04:28:46;20.20;;;11.73;;
72920;SDS011;61064;51.654;5.476;2023-08-31T04:31:12;20.50;;;10.47;;
72920;SDS011;61064;51.654;5.476;2023-08-31T04:33:38;21.70;;;11.60;;
72920;SDS011;61064;51.654;5.476;2023-08-31T04:36:04;18.80;;;10.70;;
72920;SDS011;61064;51.654;5.476;2023-08-31T04:38:39;21.52;;;11.48;;
72920;SDS011;61064;51.654;5.476;2023-08-31T04:41:04;22.80;;;11.13;;
72920;SDS011;61064;51.654;5.476;2023-08-31T04:43:30;18.20;;;10.40;;
72920;SDS011;61064;51.654;5.476;2023-08-31T04:45:55;18.80;;;10.43;;
72920;SDS011;61064;51.654;5.476;2023-08-31T04:48:21;23.13;;;10.37;;
72920;SDS011;61064;51.654;5.476;2023-08-31T04:50:46;20.17;;;10.23;;
72920;SDS011;61064;51.654;5.476;2023-08-31T04:53:12;16.33;;;9.50;;
72920;SDS011;61064;51.654;5.476;2023-08-31T04:55:37;17.60;;;9.77;;
72920;SDS011;61064;51.654;5.476;2023-08-31T04:58:03;17.27;;;9.50;;
72920;SDS011;61064;51.654;5.476;2023-08-31T05:00:28;18.77;;;9.52;;
72920;SDS011;61064;51.654;5.476;2023-08-31T05:02:54;20.48;;;10.25;;
72920;SDS011;61064;51.654;5.476;2023-08-31T05:05:20;19.03;;;9.40;;
72920;SDS011;61064;51.654;5.476;2023-08-31T05:07:45;16.47;;;9.37;;
72920;SDS011;61064;51.654;5.476;2023-08-31T05:10:11;18.10;;;9.17;;
72920;SDS011;61064;51.654;5.476;2023-08-31T05:12:36;19.80;;;9.82;;
72920;SDS011;61064;51.654;5.476;2023-08-31T05:15:01;17.67;;;9.13;;
72920;SDS011;61064;51.654;5.476;2023-08-31T05:17:27;16.67;;;8.43;;
72920;SDS011;61064;51.654;5.476;2023-08-31T05:19:53;15.47;;;8.37;;
72920;SDS011;61064;51.654;5.476;2023-08-31T05:22:18;16.73;;;8.20;;
72920;SDS011;61064;51.654;5.476;2023-08-31T05:24:43;16.93;;;8.70;;
72920;SDS011;61064;51.654;5.476;2023-08-31T05:27:09;17.33;;;7.67;;
72920;SDS011;61064;51.654;5.476;2023-08-31T05:29:34;17.27;;;8.90;;
72920;SDS011;61064;51.654;5.476;2023-08-31T05:31:59;15.20;;;8.47;;
72920;SDS011;61064;51.654;5.476;2023-08-31T05:34:25;17.53;;;8.20;;
72920;SDS011;61064;51.654;5.476;2023-08-31T05:36:50;14.93;;;7.85;;
72920;SDS011;61064;51.654;5.476;2023-08-31T05:39:16;18.20;;;8.13;;
72920;SDS011;61064;51.654;5.476;2023-08-31T05:41:42;14.90;;;7.87;;
72920;SDS011;61064;51.654;5.476;2023-08-31T05:44:08;15.77;;;8.07;;
72920;SDS011;61064;51.654;5.476;2023-08-31T05:46:34;19.03;;;7.60;;
72920;SDS011;61064;51.654;5.476;2023-08-31T05:49:00;17.33;;;8.00;;
72920;SDS011;61064;51.654;5.476;2023-08-31T05:51:25;13.63;;;7.23;;
72920;SDS011;61064;51.654;5.476;2023-08-31T05:53:50;13.73;;;7.50;;
72920;SDS011;61064;51.654;5.476;2023-08-31T05:56:16;14.93;;;7.63;;
72920;SDS011;61064;51.654;5.476;2023-08-31T05:58:41;16.15;;;7.72;;
72920;SDS011;61064;51.654;5.476;2023-08-31T06:01:09;15.23;;;7.37;;
72920;SDS011;61064;51.654;5.476;2023-08-31T06:03:35;14.90;;;7.90;;
72920;SDS011;61064;51.654;5.476;2023-08-31T06:06:00;14.23;;;7.43;;
72920;SDS011;61064;51.654;5.476;2023-08-31T06:08:26;14.50;;;6.82;;
72920;SDS011;61064;51.654;5.476;2023-08-31T06:10:52;12.63;;;7.23;;
72920;SDS011;61064;51.654;5.476;2023-08-31T06:13:17;16.37;;;7.70;;
72920;SDS011;61064;51.654;5.476;2023-08-31T06:15:42;13.83;;;7.00;;
72920;SDS011;61064;51.654;5.476;2023-08-31T06:18:09;15.93;;;7.10;;
72920;SDS011;61064;51.654;5.476;2023-08-31T06:20:34;13.43;;;6.47;;
72920;SDS011;61064;51.654;5.476;2023-08-31T06:23:00;12.40;;;6.77;;
72920;SDS011;61064;51.654;5.476;2023-08-31T06:25:25;11.63;;;6.47;;
72920;SDS011;61064;51.654;5.476;2023-08-31T06:27:50;12.70;;;6.73;;
72920;SDS011;61064;51.654;5.476;2023-08-31T06:30:16;12.43;;;6.78;;
72920;SDS011;61064;51.654;5.476;2023-08-31T06:32:46;14.30;;;6.20;;
72920;SDS011;61064;51.654;5.476;2023-08-31T06:35:12;11.77;;;6.22;;
72920;SDS011;61064;51.654;5.476;2023-08-31T06:37:39;15.68;;;6.70;;
72920;SDS011;61064;51.654;5.476;2023-08-31T06:40:08;15.80;;;6.72;;
72920;SDS011;61064;51.654;5.476;2023-08-31T06:42:38;12.65;;;6.25;;
72920;SDS011;61064;51.654;5.476;2023-08-31T06:45:04;15.07;;;6.47;;
72920;SDS011;61064;51.654;5.476;2023-08-31T06:47:31;12.73;;;6.00;;
72920;SDS011;61064;51.654;5.476;2023-08-31T06:49:57;13.38;;;5.45;;
72920;SDS011;61064;51.654;5.476;2023-08-31T06:52:25;12.63;;;5.67;;
72920;SDS011;61064;51.654;5.476;2023-08-31T06:54:51;12.15;;;6.10;;
72920;SDS011;61064;51.654;5.476;2023-08-31T06:57:21;12.00;;;5.78;;
72920;SDS011;61064;51.654;5.476;2023-08-31T06:59:50;12.85;;;5.57;;
72920;SDS011;61064;51.654;5.476;2023-08-31T07:02:15;11.13;;;5.67;;
72920;SDS011;61064;51.654;5.476;2023-08-31T07:04:41;12.10;;;5.57;;
72920;SDS011;61064;51.654;5.476;2023-08-31T07:07:06;11.95;;;5.90;;
72920;SDS011;61064;51.654;5.476;2023-08-31T07:09:33;10.45;;;5.20;;
72920;SDS011;61064;51.654;5.476;2023-08-31T07:11:59;9.23;;;4.97;;
72920;SDS011;61064;51.654;5.476;2023-08-31T07:14:26;11.10;;;5.15;;
72920;SDS011;61064;51.654;5.476;2023-08-31T07:16:51;13.63;;;5.30;;
72920;SDS011;61064;51.654;5.476;2023-08-31T07:19:16;14.03;;;5.47;;
72920;SDS011;61064;51.654;5.476;2023-08-31T07:21:42;11.63;;;5.20;;
72920;SDS011;61064;51.654;5.476;2023-08-31T07:24:07;12.35;;;5.07;;
72920;SDS011;61064;51.654;5.476;2023-08-31T07:26:33;12.57;;;5.03;;
72920;SDS011;61064;51.654;5.476;2023-08-31T07:28:59;10.93;;;4.68;;
72920;SDS011;61064;51.654;5.476;2023-08-31T07:31:26;11.65;;;5.00;;
72920;SDS011;61064;51.654;5.476;2023-08-31T07:33:51;10.63;;;4.67;;
72920;SDS011;61064;51.654;5.476;2023-08-31T07:36:16;11.73;;;5.27;;
72920;SDS011;61064;51.654;5.476;2023-08-31T07:38:42;11.07;;;4.50;;
72920;SDS011;61064;51.654;5.476;2023-08-31T07:41:07;11.90;;;4.57;;
72920;SDS011;61064;51.654;5.476;2023-08-31T07:43:32;9.97;;;4.20;;
72920;SDS011;61064;51.654;5.476;2023-08-31T07:45:58;12.13;;;4.70;;
72920;SDS011;61064;51.654;5.476;2023-08-31T07:48:23;11.90;;;4.53;;
72920;SDS011;61064;51.654;5.476;2023-08-31T07:50:49;11.13;;;4.50;;
72920;SDS011;61064;51.654;5.476;2023-08-31T07:53:14;11.50;;;4.47;;
72920;SDS011;61064;51.654;5.476;2023-08-31T07:55:40;10.57;;;4.53;;
72920;SDS011;61064;51.654;5.476;2023-08-31T07:58:05;9.45;;;4.20;;
72920;SDS011;61064;51.654;5.476;2023-08-31T08:00:31;10.83;;;4.20;;
72920;SDS011;61064;51.654;5.476;2023-08-31T08:02:56;10.07;;;4.20;;
72920;SDS011;61064;51.654;5.476;2023-08-31T08:05:22;11.00;;;4.20;;
72920;SDS011;61064;51.654;5.476;2023-08-31T08:07:47;10.87;;;4.07;;
72920;SDS011;61064;51.654;5.476;2023-08-31T08:10:12;10.67;;;4.27;;
72920;SDS011;61064;51.654;5.476;2023-08-31T08:12:39;11.77;;;4.25;;
72920;SDS011;61064;51.654;5.476;2023-08-31T08:15:11;10.60;;;4.40;;
72920;SDS011;61064;51.654;5.476;2023-08-31T08:17:37;10.88;;;4.13;;
72920;SDS011;61064;51.654;5.476;2023-08-31T08:20:03;11.93;;;4.40;;
72920;SDS011;61064;51.654;5.476;2023-08-31T08:22:30;12.43;;;4.20;;
72920;SDS011;61064;51.654;5.476;2023-08-31T08:24:55;10.10;;;4.20;;
72920;SDS011;61064;51.654;5.476;2023-08-31T08:27:20;11.27;;;4.27;;
72920;SDS011;61064;51.654;5.476;2023-08-31T08:29:46;9.03;;;3.73;;
72920;SDS011;61064;51.654;5.476;2023-08-31T08:32:12;9.63;;;3.77;;
72920;SDS011;61064;51.654;5.476;2023-08-31T08:34:37;10.32;;;3.58;;
72920;SDS011;61064;51.654;5.476;2023-08-31T08:37:03;10.27;;;4.10;;
72920;SDS011;61064;51.654;5.476;2023-08-31T08:39:29;9.18;;;3.78;;
72920;SDS011;61064;51.654;5.476;2023-08-31T08:41:54;10.00;;;3.40;;
72920;SDS011;61064;51.654;5.476;2023-08-31T08:44:23;10.50;;;3.20;;
72920;SDS011;61064;51.654;5.476;2023-08-31T08:46:50;7.43;;;3.17;;
72920;SDS011;61064;51.654;5.476;2023-08-31T08:49:16;8.18;;;3.20;;
72920;SDS011;61064;51.654;5.476;2023-08-31T08:51:43;9.80;;;3.60;;
72920;SDS011;61064;51.654;5.476;2023-08-31T08:54:12;9.27;;;3.20;;
72920;SDS011;61064;51.654;5.476;2023-08-31T08:56:38;8.73;;;3.38;;
72920;SDS011;61064;51.654;5.476;2023-08-31T08:59:03;8.73;;;2.87;;
72920;SDS011;61064;51.654;5.476;2023-08-31T09:01:29;8.68;;;3.00;;
72920;SDS011;61064;51.654;5.476;2023-08-31T09:03:55;10.82;;;3.83;;
72920;SDS011;61064;51.654;5.476;2023-08-31T09:06:22;9.03;;;3.17;;
72920;SDS011;61064;51.654;5.476;2023-08-31T09:08:53;9.15;;;3.10;;
72920;SDS011;61064;51.654;5.476;2023-08-31T09:11:20;8.50;;;2.67;;
72920;SDS011;61064;51.654;5.476;2023-08-31T09:13:50;9.10;;;2.90;;
72920;SDS011;61064;51.654;5.476;2023-08-31T09:16:25;7.38;;;2.58;;
72920;SDS011;61064;51.654;5.476;2023-08-31T09:18:53;8.70;;;2.70;;
72920;SDS011;61064;51.654;5.476;2023-08-31T09:21:19;8.00;;;2.20;;
72920;SDS011;61064;51.654;5.476;2023-08-31T09:23:47;6.25;;;2.00;;
72920;SDS011;61064;51.654;5.476;2023-08-31T09:26:20;7.07;;;2.40;;
72920;SDS011;61064;51.654;5.476;2023-08-31T09:28:45;7.60;;;2.20;;
72920;SDS011;61064;51.654;5.476;2023-08-31T09:31:11;5.93;;;1.80;;
72920;SDS011;61064;51.654;5.476;2023-08-31T09:33:36;8.80;;;1.97;;
72920;SDS011;61064;51.654;5.476;2023-08-31T09:36:02;7.20;;;1.92;;
72920;SDS011;61064;51.654;5.476;2023-08-31T09:38:29;8.07;;;1.90;;
72920;SDS011;61064;51.654;5.476;2023-08-31T09:41:04;7.57;;;2.00;;
72920;SDS011;61064;51.654;5.476;2023-08-31T09:43:33;5.97;;;1.58;;
72920;SDS011;61064;51.654;5.476;2023-08-31T09:45:58;6.63;;;1.83;;
72920;SDS011;61064;51.654;5.476;2023-08-31T09:48:25;7.20;;;2.05;;
72920;SDS011;61064;51.654;5.476;2023-08-31T09:50:51;5.80;;;1.73;;
72920;SDS011;61064;51.654;5.476;2023-08-31T09:53:17;6.93;;;2.00;;
72920;SDS011;61064;51.654;5.476;2023-08-31T09:55:46;6.75;;;2.03;;
72920;SDS011;61064;51.654;5.476;2023-08-31T09:58:12;7.97;;;2.10;;
72920;SDS011;61064;51.654;5.476;2023-08-31T10:00:43;8.18;;;2.70;;
72920;SDS011;61064;51.654;5.476;2023-08-31T10:03:11;9.27;;;1.92;;
72920;SDS011;61064;51.654;5.476;2023-08-31T10:05:43;7.37;;;2.27;;
72920;SDS011;61064;51.654;5.476;2023-08-31T10:08:09;7.55;;;1.88;;
72920;SDS011;61064;51.654;5.476;2023-08-31T10:10:36;6.40;;;1.70;;
72920;SDS011;61064;51.654;5.476;2023-08-31T10:13:02;5.40;;;1.60;;
72920;SDS011;61064;51.654;5.476;2023-08-31T10:15:33;6.22;;;1.90;;
72920;SDS011;61064;51.654;5.476;2023-08-31T10:18:00;6.90;;;1.83;;
72920;SDS011;61064;51.654;5.476;2023-08-31T10:20:27;7.28;;;1.70;;
72920;SDS011;61064;51.654;5.476;2023-08-31T10:22:56;7.28;;;2.00;;
72920;SDS011;61064;51.654;5.476;2023-08-31T10:25:41;7.10;;;1.70;;
72920;SDS011;61064;51.654;5.476;2023-08-31T10:31:05;6.63;;;1.60;;
72920;SDS011;61064;51.654;5.476;2023-08-31T10:33:42;7.20;;;2.10;;
72920;SDS011;61064;51.654;5.476;2023-08-31T10:36:14;6.65;;;2.10;;
72920;SDS011;61064;51.654;5.476;2023-08-31T10:38:42;7.68;;;2.20;;
72920;SDS011;61064;51.654;5.476;2023-08-31T10:43:55;8.87;;;2.00;;
72920;SDS011;61064;51.654;5.476;2023-08-31T10:46:44;5.05;;;1.60;;
72920;SDS011;61064;51.654;5.476;2023-08-31T10:49:17;7.25;;;1.63;;
72920;SDS011;61064;51.654;5.476;2023-08-31T10:51:44;7.07;;;1.60;;
72920;SDS011;61064;51.654;5.476;2023-08-31T10:54:29;7.20;;;1.38;;
72920;SDS011;61064;51.654;5.476;2023-08-31T10:57:03;8.38;;;2.00;;
72920;SDS011;61064;51.654;5.476;2023-08-31T10:59:45;6.90;;;2.00;;
72920;SDS011;61064;51.654;5.476;2023-08-31T11:02:33;5.93;;;1.65;;
72920;SDS011;61064;51.654;5.476;2023-08-31T11:05:01;10.00;;;2.93;;
72920;SDS011;61064;51.654;5.476;2023-08-31T11:07:40;7.00;;;1.85;;
72920;SDS011;61064;51.654;5.476;2023-08-31T11:10:18;8.07;;;1.70;;
72920;SDS011;61064;51.654;5.476;2023-08-31T11:12:51;7.68;;;1.70;;
72920;SDS011;61064;51.654;5.476;2023-08-31T11:15:23;6.05;;;1.30;;
72920;SDS011;61064;51.654;5.476;2023-08-31T11:18:02;6.80;;;1.40;;
72920;SDS011;61064;51.654;5.476;2023-08-31T11:20:30;5.60;;;1.70;;
72920;SDS011;61064;51.654;5.476;2023-08-31T11:22:56;7.47;;;1.80;;
72920;SDS011;61064;51.654;5.476;2023-08-31T11:25:23;6.87;;;1.80;;
72920;SDS011;61064;51.654;5.476;2023-08-31T11:28:00;8.05;;;1.60;;
72920;SDS011;61064;51.654;5.476;2023-08-31T11:30:29;6.47;;;1.60;;
72920;SDS011;61064;51.654;5.476;2023-08-31T11:33:05;6.65;;;1.50;;
72920;SDS011;61064;51.654;5.476;2023-08-31T11:35:37;5.68;;;1.25;;
72920;SDS011;61064;51.654;5.476;2023-08-31T11:38:07;6.90;;;1.90;;
72920;SDS011;61064;51.654;5.476;2023-08-31T11:40:33;6.60;;;1.52;;
72920;SDS011;61064;51.654;5.476;2023-08-31T11:42:59;7.18;;;1.73;;
72920;SDS011;61064;51.654;5.476;2023-08-31T11:45:28;5.47;;;1.70;;
72920;SDS011;61064;51.654;5.476;2023-08-31T11:47:54;7.47;;;1.63;;
72920;SDS011;61064;51.654;5.476;2023-08-31T11:50:21;9.02;;;1.95;;
72920;SDS011;61064;51.654;5.476;2023-08-31T11:52:51;7.18;;;1.83;;
72920;SDS011;61064;51.654;5.476;2023-08-31T11:55:18;9.50;;;1.80;;
72920;SDS011;61064;51.654;5.476;2023-08-31T11:57:50;7.77;;;1.90;;
72920;SDS011;61064;51.654;5.476;2023-08-31T12:00:17;9.75;;;2.10;;
72920;SDS011;61064;51.654;5.476;2023-08-31T12:02:44;7.80;;;1.90;;
72920;SDS011;61064;51.654;5.476;2023-08-31T12:05:11;7.22;;;1.75;;
72920;SDS011;61064;51.654;5.476;2023-08-31T12:07:40;6.23;;;1.30;;
72920;SDS011;61064;51.654;5.476;2023-08-31T12:10:06;7.13;;;1.63;;
72920;SDS011;61064;51.654;5.476;2023-08-31T12:12:33;5.40;;;1.30;;
72920;SDS011;61064;51.654;5.476;2023-08-31T12:15:00;6.68;;;1.70;;
72920;SDS011;61064;51.654;5.476;2023-08-31T12:17:28;7.30;;;1.70;;
72920;SDS011;61064;51.654;5.476;2023-08-31T12:20:01;6.45;;;1.73;;
72920;SDS011;61064;51.654;5.476;2023-08-31T12:22:31;6.27;;;1.60;;
72920;SDS011;61064;51.654;5.476;2023-08-31T12:24:56;6.00;;;1.90;;
72920;SDS011;61064;51.654;5.476;2023-08-31T12:27:22;6.40;;;2.10;;
72920;SDS011;61064;51.654;5.476;2023-08-31T12:29:47;7.43;;;2.30;;
72920;SDS011;61064;51.654;5.476;2023-08-31T12:32:13;6.95;;;2.20;;
72920;SDS011;61064;51.654;5.476;2023-08-31T12:34:38;7.23;;;2.23;;
72920;SDS011;61064;51.654;5.476;2023-08-31T12:37:04;9.27;;;2.95;;
72920;SDS011;61064;51.654;5.476;2023-08-31T12:39:29;7.93;;;2.60;;
72920;SDS011;61064;51.654;5.476;2023-08-31T12:41:58;6.50;;;2.10;;
72920;SDS011;61064;51.654;5.476;2023-08-31T12:44:24;7.05;;;2.38;;
72920;SDS011;61064;51.654;5.476;2023-08-31T12:46:50;7.10;;;2.60;;
72920;SDS011;61064;51.654;5.476;2023-08-31T12:49:15;10.73;;;2.70;;
72920;SDS011;61064;51.654;5.476;2023-08-31T12:51:41;10.07;;;2.50;;
72920;SDS011;61064;51.654;5.476;2023-08-31T12:54:06;8.93;;;2.30;;
72920;SDS011;61064;51.654;5.476;2023-08-31T12:56:33;6.50;;;2.42;;
72920;SDS011;61064;51.654;5.476;2023-08-31T12:58:58;6.07;;;2.10;;
72920;SDS011;61064;51.654;5.476;2023-08-31T13:01:23;7.53;;;2.30;;
72920;SDS011;61064;51.654;5.476;2023-08-31T13:03:50;6.75;;;1.90;;
72920;SDS011;61064;51.654;5.476;2023-08-31T13:06:17;6.80;;;1.95;;
72920;SDS011;61064;51.654;5.476;2023-08-31T13:08:42;9.37;;;1.87;;
72920;SDS011;61064;51.654;5.476;2023-08-31T13:11:09;7.95;;;1.90;;
72920;SDS011;61064;51.654;5.476;2023-08-31T13:13:35;7.70;;;2.30;;
72920;SDS011;61064;51.654;5.476;2023-08-31T13:16:00;9.30;;;2.13;;
72920;SDS011;61064;51.654;5.476;2023-08-31T13:18:26;6.97;;;2.00;;
72920;SDS011;61064;51.654;5.476;2023-08-31T13:20:52;6.53;;;1.90;;
72920;SDS011;61064;51.654;5.476;2023-08-31T13:23:19;5.30;;;1.70;;
72920;SDS011;61064;51.654;5.476;2023-08-31T13:25:44;6.80;;;1.50;;
72920;SDS011;61064;51.654;5.476;2023-08-31T13:28:10;5.78;;;1.80;;
72920;SDS011;61064;51.654;5.476;2023-08-31T13:30:35;8.80;;;1.80;;
72920;SDS011;61064;51.654;5.476;2023-08-31T13:33:01;6.83;;;1.97;;
72920;SDS011;61064;51.654;5.476;2023-08-31T13:35:27;8.13;;;2.17;;
72920;SDS011;61064;51.654;5.476;2023-08-31T13:37:52;5.95;;;2.17;;
72920;SDS011;61064;51.654;5.476;2023-08-31T13:40:17;6.40;;;2.20;;
72920;SDS011;61064;51.654;5.476;2023-08-31T13:42:53;7.27;;;2.30;;
72920;SDS011;61064;51.654;5.476;2023-08-31T13:45:19;6.53;;;2.22;;
72920;SDS011;61064;51.654;5.476;2023-08-31T13:47:45;7.53;;;2.33;;
72920;SDS011;61064;51.654;5.476;2023-08-31T13:50:14;7.22;;;2.20;;
72920;SDS011;61064;51.654;5.476;2023-08-31T13:52:40;6.63;;;2.00;;
72920;SDS011;61064;51.654;5.476;2023-08-31T13:55:06;6.88;;;2.00;;
72920;SDS011;61064;51.654;5.476;2023-08-31T13:57:32;9.55;;;2.00;;
72920;SDS011;61064;51.654;5.476;2023-08-31T13:59:57;5.53;;;1.77;;
72920;SDS011;61064;51.654;5.476;2023-08-31T14:02:22;6.57;;;1.83;;
72920;SDS011;61064;51.654;5.476;2023-08-31T14:04:48;7.10;;;1.60;;
72920;SDS011;61064;51.654;5.476;2023-08-31T14:07:13;8.90;;;1.90;;
72920;SDS011;61064;51.654;5.476;2023-08-31T14:09:38;6.27;;;1.67;;
72920;SDS011;61064;51.654;5.476;2023-08-31T14:12:03;6.13;;;1.70;;
72920;SDS011;61064;51.654;5.476;2023-08-31T14:14:29;5.88;;;1.67;;
72920;SDS011;61064;51.654;5.476;2023-08-31T14:16:54;7.73;;;1.57;;
72920;SDS011;61064;51.654;5.476;2023-08-31T14:19:20;6.20;;;1.67;;
72920;SDS011;61064;51.654;5.476;2023-08-31T14:21:47;5.33;;;1.30;;
72920;SDS011;61064;51.654;5.476;2023-08-31T14:24:12;6.03;;;1.47;;
72920;SDS011;61064;51.654;5.476;2023-08-31T14:26:37;7.53;;;1.60;;
72920;SDS011;61064;51.654;5.476;2023-08-31T14:29:03;5.70;;;1.58;;
72920;SDS011;61064;51.654;5.476;2023-08-31T14:31:29;6.60;;;1.60;;
72920;SDS011;61064;51.654;5.476;2023-08-31T14:33:54;6.37;;;1.77;;
72920;SDS011;61064;51.654;5.476;2023-08-31T14:36:20;5.40;;;1.75;;
72920;SDS011;61064;51.654;5.476;2023-08-31T14:38:46;7.40;;;2.40;;
72920;SDS011;61064;51.654;5.476;2023-08-31T14:41:11;8.98;;;2.25;;
72920;SDS011;61064;51.654;5.476;2023-08-31T14:43:37;6.50;;;2.30;;
72920;SDS011;61064;51.654;5.476;2023-08-31T14:46:02;9.40;;;2.53;;
72920;SDS011;61064;51.654;5.476;2023-08-31T14:48:29;9.18;;;2.70;;